Time;durP1;ratioP1;P1;durP2;ratioP2;P2;SDS_P1;SDS_P2;PMS_P1;PMS_P2;Temp;Humidity;BMP_temperature;BMP_pressure;BME280_temperature;BME280_humidity;BME280_pressure;Samples;Min_cycle;Max_cycle;Signal;HPM_P1;HPM_P2
2023/10/31 00:01:21;;;;;;;2.63;2.28;;;12.60;99.90;;;;;;4984462;28;20053;-84
2023/10/31 00:03:47;;;;;;;3.88;3.00;;;12.50;99.90;;;;;;4970353;28;20046;-84
2023/10/31 00:06:12;;;;;;;3.45;2.03;;;12.50;99.90;;;;;;4985528;28;20038;-84
2023/10/31 00:08:38;;;;;;;2.72;2.30;;;12.40;99.90;;;;;;4968725;28;20049;-83
2023/10/31 00:11:03;;;;;;;2.47;2.05;;;12.40;99.90;;;;;;4983149;28;20034;-85
2023/10/31 00:13:29;;;;;;;4.53;3.10;;;12.30;99.90;;;;;;4968171;28;20030;-82
2023/10/31 00:15:54;;;;;;;3.63;3.00;;;12.20;99.90;;;;;;4995803;28;20038;-82
2023/10/31 00:18:20;;;;;;;3.13;2.67;;;12.20;99.90;;;;;;4998295;28;20034;-83
2023/10/31 00:20:46;;;;;;;2.63;2.42;;;12.10;99.90;;;;;;4999813;28;20570;-82
2023/10/31 00:23:12;;;;;;;3.30;2.97;;;12.10;99.90;;;;;;4998323;28;20038;-82
2023/10/31 00:25:37;;;;;;;3.13;2.75;;;12.00;99.90;;;;;;4996706;28;20882;-83
2023/10/31 00:28:03;;;;;;;2.45;2.15;;;12.00;99.90;;;;;;4984646;28;20069;-83
2023/10/31 00:30:29;;;;;;;2.42;2.22;;;12.00;99.90;;;;;;4968848;28;20030;-83
2023/10/31 00:32:54;;;;;;;2.67;2.47;;;12.00;99.90;;;;;;4984649;28;20069;-83
2023/10/31 00:35:20;;;;;;;4.28;2.83;;;11.90;99.90;;;;;;5016291;28;20027;-82
2023/10/31 00:37:45;;;;;;;2.22;2.03;;;11.80;99.90;;;;;;4981738;28;20062;-83
2023/10/31 00:40:11;;;;;;;3.65;2.20;;;11.90;99.90;;;;;;4984389;28;20101;-82
2023/10/31 00:42:41;;;;;;;2.20;2.00;;;11.80;99.90;;;;;;4967986;28;20061;-80
2023/10/31 00:45:08;;;;;;;3.83;3.53;;;11.80;99.90;;;;;;4967978;28;20030;-81
2023/10/31 00:47:33;;;;;;;4.93;2.72;;;11.70;99.90;;;;;;4968534;28;20033;-84
2023/10/31 00:49:59;;;;;;;2.53;2.33;;;11.70;99.90;;;;;;4967768;28;20030;-84
2023/10/31 00:52:24;;;;;;;3.30;1.80;;;11.60;99.90;;;;;;4983581;28;20027;-84
2023/10/31 00:54:50;;;;;;;3.03;2.25;;;11.60;99.90;;;;;;4968557;28;20030;-83
2023/10/31 00:57:16;;;;;;;3.42;2.00;;;11.50;99.90;;;;;;4968822;28;20023;-82
2023/10/31 00:59:41;;;;;;;2.75;2.38;;;11.60;99.90;;;;;;4996796;28;20112;-82
2023/10/31 01:02:07;;;;;;;4.97;1.40;;;11.50;99.90;;;;;;4984725;28;20061;-82
2023/10/31 01:04:32;;;;;;;1.80;1.23;;;11.50;99.90;;;;;;4984411;28;20045;-82
2023/10/31 01:06:58;;;;;;;1.77;1.67;;;11.40;99.90;;;;;;4998313;28;20409;-83
2023/10/31 01:09:23;;;;;;;2.75;1.20;;;11.40;99.90;;;;;;4994971;28;20109;-83
2023/10/31 01:11:49;;;;;;;1.13;0.90;;;11.40;99.90;;;;;;4985260;28;20038;-83
2023/10/31 01:14:14;;;;;;;1.33;1.13;;;11.40;99.90;;;;;;4996386;28;20038;-83
2023/10/31 01:16:40;;;;;;;2.78;1.52;;;11.40;99.90;;;;;;4984020;28;20038;-82
2023/10/31 01:19:06;;;;;;;1.75;1.40;;;11.40;99.90;;;;;;5013583;28;20034;-83
2023/10/31 01:21:31;;;;;;;2.97;1.25;;;11.40;99.90;;;;;;5000518;28;20035;-83
2023/10/31 01:23:58;;;;;;;2.70;1.55;;;11.30;99.90;;;;;;5015791;28;20038;-82
2023/10/31 01:26:24;;;;;;;0.98;0.80;;;11.30;99.90;;;;;;5000876;28;20041;-81
2023/10/31 01:28:49;;;;;;;2.08;1.27;;;11.30;99.90;;;;;;4983539;28;20042;-83
2023/10/31 01:31:15;;;;;;;2.63;1.27;;;11.30;99.90;;;;;;4986772;28;20022;-82
2023/10/31 01:33:45;;;;;;;5.03;0.88;;;11.30;99.90;;;;;;4967580;28;20042;-82
2023/10/31 01:36:12;;;;;;;2.67;1.67;;;11.20;99.90;;;;;;4968826;28;20038;-82
2023/10/31 01:38:38;;;;;;;1.65;1.50;;;11.30;99.90;;;;;;4984497;28;20684;-82
2023/10/31 01:41:03;;;;;;;3.33;2.83;;;11.30;99.90;;;;;;4982133;28;20065;-83
2023/10/31 01:43:29;;;;;;;2.80;2.33;;;11.20;99.90;;;;;;5003381;28;20050;-83
2023/10/31 01:45:55;;;;;;;1.50;1.40;;;11.20;99.90;;;;;;4998883;28;20034;-83
2023/10/31 01:48:21;;;;;;;3.92;3.33;;;11.20;99.90;;;;;;5014115;28;20031;-81
2023/10/31 01:50:46;;;;;;;2.08;1.67;;;11.10;99.90;;;;;;4968871;28;20117;-83
2023/10/31 01:53:12;;;;;;;1.70;1.05;;;11.10;99.90;;;;;;4968394;28;20042;-83
2023/10/31 01:55:37;;;;;;;2.05;1.80;;;11.20;99.90;;;;;;4967817;28;20030;-82
2023/10/31 01:58:03;;;;;;;4.53;3.45;;;11.10;99.90;;;;;;4967736;28;20288;-82
2023/10/31 02:00:28;;;;;;;6.43;4.22;;;11.10;99.90;;;;;;4984170;28;20042;-82
2023/10/31 02:02:54;;;;;;;5.88;4.43;;;11.10;99.90;;;;;;4993882;28;20052;-83
2023/10/31 02:05:20;;;;;;;6.18;4.05;;;11.10;99.90;;;;;;4983730;28;20402;-82
2023/10/31 02:07:46;;;;;;;6.43;3.75;;;11.00;99.90;;;;;;4983879;28;20030;-82
2023/10/31 02:10:12;;;;;;;5.50;3.95;;;11.00;99.90;;;;;;5000091;28;20030;-82
2023/10/31 02:12:37;;;;;;;3.10;2.38;;;11.00;99.90;;;;;;4968292;28;20039;-83
2023/10/31 02:15:03;;;;;;;3.28;2.85;;;11.00;99.90;;;;;;4997297;28;20039;-83
2023/10/31 02:17:29;;;;;;;5.93;4.25;;;11.00;99.90;;;;;;4984877;28;20731;-83
2023/10/31 02:19:55;;;;;;;5.25;2.58;;;11.00;99.90;;;;;;4966543;28;20030;-83
2023/10/31 02:22:22;;;;;;;4.60;4.03;;;11.00;99.90;;;;;;4986254;28;20038;-87
2023/10/31 02:24:50;;;;;;;3.95;3.58;;;11.00;99.90;;;;;;4995379;28;20126;-85
2023/10/31 02:27:15;;;;;;;4.90;4.05;;;10.90;99.90;;;;;;4982124;28;20549;-87
2023/10/31 02:29:41;;;;;;;3.35;1.95;;;10.90;99.90;;;;;;4967332;28;20081;-84
2023/10/31 02:32:06;;;;;;;5.10;3.33;;;10.70;99.90;;;;;;4983486;28;20030;-87
2023/10/31 02:34:34;;;;;;;4.13;2.78;;;10.80;99.90;;;;;;4983656;28;20410;-86
2023/10/31 02:36:59;;;;;;;4.35;2.95;;;10.80;99.90;;;;;;4983126;28;20494;-84
2023/10/31 02:39:25;;;;;;;2.30;2.10;;;10.80;99.90;;;;;;4992136;28;20073;-84
2023/10/31 02:41:50;;;;;;;2.97;2.63;;;10.80;99.90;;;;;;4971028;28;20023;-85
2023/10/31 02:44:16;;;;;;;4.07;2.33;;;10.70;99.90;;;;;;4970874;28;20042;-85
2023/10/31 02:46:41;;;;;;;3.47;2.55;;;10.70;99.90;;;;;;4970214;28;20120;-83
2023/10/31 02:49:09;;;;;;;2.88;2.38;;;10.70;99.90;;;;;;4976806;28;20501;-84
2023/10/31 02:51:35;;;;;;;1.65;1.40;;;10.70;99.90;;;;;;4985372;28;20494;-83
2023/10/31 02:54:00;;;;;;;2.50;2.30;;;10.70;99.90;;;;;;4969644;28;20053;-84
2023/10/31 02:56:26;;;;;;;5.15;3.60;;;10.70;99.90;;;;;;4986296;28;20038;-84
2023/10/31 02:58:52;;;;;;;3.60;2.83;;;10.70;99.90;;;;;;5016977;28;20034;-82
2023/10/31 03:01:19;;;;;;;4.15;2.95;;;10.70;99.90;;;;;;4970385;28;20034;-84
2023/10/31 03:03:45;;;;;;;8.45;4.53;;;10.60;99.90;;;;;;5000515;28;20145;-84
2023/10/31 03:06:11;;;;;;;3.95;2.50;;;10.60;99.90;;;;;;5001575;28;20147;-83
2023/10/31 03:08:36;;;;;;;7.20;5.57;;;10.60;99.90;;;;;;4986201;28;20033;-80
2023/10/31 03:11:02;;;;;;;5.18;3.67;;;10.60;99.90;;;;;;4996006;28;20035;-84
2023/10/31 03:13:27;;;;;;;6.30;3.95;;;10.60;99.90;;;;;;4998976;28;20105;-84
2023/10/31 03:15:53;;;;;;;4.55;3.65;;;10.70;99.90;;;;;;4985401;28;20034;-84
2023/10/31 03:18:18;;;;;;;8.93;5.03;;;10.60;99.90;;;;;;4986844;28;20041;-83
2023/10/31 03:20:45;;;;;;;12.18;6.05;;;10.60;99.90;;;;;;4984878;28;20042;-83
2023/10/31 03:23:11;;;;;;;6.93;2.92;;;10.60;99.90;;;;;;4997887;28;20138;-85
2023/10/31 03:25:37;;;;;;;9.02;5.22;;;10.60;99.90;;;;;;5015665;28;20454;-81
2023/10/31 03:28:03;;;;;;;5.93;2.90;;;10.60;99.90;;;;;;4985488;28;20042;-84
2023/10/31 03:30:28;;;;;;;10.07;5.50;;;10.60;99.90;;;;;;4986426;28;20038;-83
2023/10/31 03:32:54;;;;;;;11.55;4.47;;;10.60;99.90;;;;;;4988354;28;20037;-81
2023/10/31 03:35:19;;;;;;;7.90;4.72;;;10.60;99.90;;;;;;5018141;28;20386;-84
2023/10/31 03:37:45;;;;;;;8.88;5.93;;;10.60;99.90;;;;;;5019086;28;20038;-84
2023/10/31 03:40:11;;;;;;;5.03;2.63;;;10.60;99.90;;;;;;4999355;28;20121;-82
2023/10/31 03:42:36;;;;;;;2.30;1.83;;;10.60;99.90;;;;;;4994223;28;20387;-85
2023/10/31 03:45:02;;;;;;;7.30;4.43;;;10.60;99.90;;;;;;4986952;28;20191;-85
2023/10/31 03:47:28;;;;;;;6.57;4.93;;;10.60;99.90;;;;;;4968989;28;20057;-86
2023/10/31 03:49:53;;;;;;;5.45;3.05;;;10.70;99.90;;;;;;4970065;28;20026;-84
2023/10/31 03:52:19;;;;;;;5.10;3.58;;;10.60;99.90;;;;;;4984429;28;20658;-83
2023/10/31 03:54:45;;;;;;;5.43;3.55;;;10.60;99.90;;;;;;4999713;28;20474;-82
2023/10/31 03:57:11;;;;;;;8.45;3.95;;;10.60;99.90;;;;;;4968895;28;20117;-84
2023/10/31 03:59:37;;;;;;;8.73;5.30;;;10.60;99.90;;;;;;4985969;28;20081;-84
2023/10/31 04:02:03;;;;;;;7.78;4.90;;;10.60;99.90;;;;;;5000409;28;20045;-85
2023/10/31 04:04:28;;;;;;;4.78;3.72;;;10.60;99.90;;;;;;5005959;28;20038;-83
2023/10/31 04:06:54;;;;;;;9.23;4.60;;;10.60;99.90;;;;;;4969507;28;20490;-83
2023/10/31 04:09:19;;;;;;;5.35;3.75;;;10.60;99.90;;;;;;4997825;28;20618;-83
2023/10/31 04:11:45;;;;;;;8.50;3.97;;;10.60;99.90;;;;;;4996281;28;20035;-82
2023/10/31 04:14:11;;;;;;;4.32;2.55;;;10.60;99.90;;;;;;5014376;28;20543;-83
2023/10/31 04:16:40;;;;;;;5.78;4.80;;;10.50;99.90;;;;;;4994045;28;20118;-83
2023/10/31 04:19:05;;;;;;;3.88;1.92;;;10.50;99.90;;;;;;4968339;28;20541;-83
2023/10/31 04:21:31;;;;;;;5.85;3.78;;;10.50;99.90;;;;;;4985984;28;20069;-83
2023/10/31 04:23:56;;;;;;;7.68;5.07;;;10.50;99.90;;;;;;4984479;28;20095;-83
2023/10/31 04:26:22;;;;;;;7.97;5.70;;;10.60;99.90;;;;;;4998402;28;20521;-83
2023/10/31 04:28:47;;;;;;;6.43;4.38;;;10.60;99.90;;;;;;4968261;28;20046;-80
2023/10/31 04:31:13;;;;;;;8.13;3.88;;;10.50;99.90;;;;;;4968254;28;20034;-82
2023/10/31 04:33:38;;;;;;;7.63;4.25;;;10.50;99.90;;;;;;5000272;28;20435;-84
2023/10/31 04:36:04;;;;;;;6.28;4.38;;;10.50;99.90;;;;;;4982480;28;20053;-83
2023/10/31 04:38:30;;;;;;;8.32;5.97;;;10.60;99.90;;;;;;4983283;28;20037;-83
2023/10/31 04:40:56;;;;;;;8.20;5.63;;;10.50;99.90;;;;;;4997456;28;20109;-85
2023/10/31 04:43:21;;;;;;;7.80;5.00;;;10.40;99.90;;;;;;4986121;28;20050;-85
2023/10/31 04:45:47;;;;;;;6.07;4.57;;;10.50;99.90;;;;;;4967707;28;20038;-85
2023/10/31 04:48:13;;;;;;;5.25;2.53;;;10.50;99.90;;;;;;5014208;28;20038;-84
2023/10/31 04:50:39;;;;;;;5.10;3.40;;;10.50;99.90;;;;;;4968133;28;20414;-85
2023/10/31 04:53:04;;;;;;;5.32;2.72;;;10.40;99.90;;;;;;4967231;28;20026;-81
2023/10/31 04:55:30;;;;;;;4.57;2.55;;;10.40;99.90;;;;;;4951689;28;20034;-83
2023/10/31 04:57:55;;;;;;;5.03;3.53;;;10.40;99.90;;;;;;4982997;28;20057;-83
2023/10/31 05:00:21;;;;;;;4.63;3.67;;;10.50;99.90;;;;;;4984361;28;20045;-85
2023/10/31 05:02:46;;;;;;;8.88;5.00;;;10.50;99.90;;;;;;4992851;28;20379;-84
2023/10/31 05:05:12;;;;;;;7.70;5.18;;;10.40;99.90;;;;;;4967352;28;20353;-83
2023/10/31 05:07:38;;;;;;;5.65;3.03;;;10.40;99.90;;;;;;4983206;28;20361;-84
2023/10/31 05:10:05;;;;;;;5.13;3.92;;;10.40;99.90;;;;;;4981438;28;20038;-84
2023/10/31 05:12:31;;;;;;;5.47;4.50;;;10.40;99.90;;;;;;4980804;28;20037;-84
2023/10/31 05:14:56;;;;;;;6.72;5.28;;;10.50;99.90;;;;;;4984679;28;20043;-80
2023/10/31 05:17:22;;;;;;;7.53;3.78;;;10.50;99.90;;;;;;4995503;28;20035;-83
2023/10/31 05:19:49;;;;;;;7.35;5.10;;;10.50;99.90;;;;;;4967032;28;20491;-85
2023/10/31 05:22:14;;;;;;;5.78;3.47;;;10.40;99.90;;;;;;4981337;28;20018;-84
2023/10/31 05:24:40;;;;;;;7.75;5.80;;;10.40;99.90;;;;;;4982856;28;20406;-84
2023/10/31 05:27:07;;;;;;;2.47;1.92;;;10.40;99.90;;;;;;4995581;28;20380;-84
2023/10/31 05:29:33;;;;;;;4.70;3.38;;;10.40;99.90;;;;;;4982713;28;20052;-83
2023/10/31 05:32:00;;;;;;;6.85;3.83;;;10.40;99.90;;;;;;4983294;28;20321;-80
2023/10/31 05:34:25;;;;;;;5.60;4.38;;;10.40;99.90;;;;;;4999005;28;20559;-85
2023/10/31 05:36:51;;;;;;;7.18;5.65;;;10.40;99.90;;;;;;4981956;28;20143;-85
2023/10/31 05:39:16;;;;;;;6.93;3.83;;;10.40;99.90;;;;;;5013768;28;20041;-84
2023/10/31 05:41:42;;;;;;;6.97;5.28;;;10.30;99.90;;;;;;4996325;28;20042;-84
2023/10/31 05:44:07;;;;;;;6.65;4.82;;;10.40;99.90;;;;;;4983303;28;20189;-86
2023/10/31 05:46:38;;;;;;;6.95;4.55;;;10.40;99.90;;;;;;4983117;28;20392;-85
2023/10/31 05:49:04;;;;;;;9.75;6.80;;;10.40;99.90;;;;;;4982163;28;20129;-84
2023/10/31 05:51:30;;;;;;;9.88;5.80;;;10.40;99.90;;;;;;4994744;28;20139;-82
2023/10/31 05:53:55;;;;;;;9.63;7.28;;;10.40;99.90;;;;;;4981350;28;20106;-84
2023/10/31 05:56:21;;;;;;;10.80;6.95;;;10.40;99.90;;;;;;4997335;28;20037;-84
2023/10/31 05:58:46;;;;;;;14.25;9.98;;;10.40;99.90;;;;;;4993533;28;20026;-82
2023/10/31 06:01:12;;;;;;;13.88;10.45;;;10.40;99.90;;;;;;4969934;28;20045;-82
2023/10/31 06:03:37;;;;;;;16.92;9.65;;;10.30;99.90;;;;;;4984695;28;20179;-82
2023/10/31 06:06:03;;;;;;;13.23;6.88;;;10.30;99.90;;;;;;4996523;28;20074;-84
2023/10/31 06:08:29;;;;;;;10.55;6.57;;;10.30;99.90;;;;;;4980183;28;20034;-84
2023/10/31 06:10:58;;;;;;;10.68;7.15;;;10.30;99.90;;;;;;4967156;28;20088;-82
2023/10/31 06:13:25;;;;;;;14.02;10.27;;;10.40;99.90;;;;;;4983659;28;20106;-82
2023/10/31 06:15:51;;;;;;;9.48;6.38;;;10.40;99.90;;;;;;4982427;28;20032;-82
2023/10/31 06:18:17;;;;;;;11.70;7.35;;;10.40;99.90;;;;;;4999081;28;20121;-81
2023/10/31 06:20:42;;;;;;;9.98;7.22;;;10.30;99.90;;;;;;4967196;28;20038;-81
2023/10/31 06:23:08;;;;;;;12.98;8.70;;;10.40;99.90;;;;;;4982257;28;20128;-79
2023/10/31 06:25:34;;;;;;;6.90;4.57;;;10.40;99.90;;;;;;5014133;28;20487;-81
2023/10/31 06:28:00;;;;;;;8.32;5.13;;;10.40;99.90;;;;;;4999161;28;20510;-83
2023/10/31 06:30:25;;;;;;;12.55;8.43;;;10.40;99.90;;;;;;4982901;28;20027;-82
2023/10/31 06:32:52;;;;;;;10.02;6.15;;;10.30;99.90;;;;;;4982192;28;20045;-82
2023/10/31 06:35:18;;;;;;;16.38;11.43;;;10.30;99.90;;;;;;4965227;28;20038;-81
2023/10/31 06:37:44;;;;;;;9.65;7.07;;;10.30;99.90;;;;;;4967176;28;20035;-83
2023/10/31 06:40:10;;;;;;;13.65;8.45;;;10.30;99.90;;;;;;4992818;28;20486;-82
2023/10/31 06:42:36;;;;;;;7.93;5.45;;;10.40;99.90;;;;;;4984047;28;20093;-81
2023/10/31 06:45:02;;;;;;;10.77;8.15;;;10.40;99.90;;;;;;4991717;28;20402;-81
2023/10/31 06:47:27;;;;;;;12.15;9.45;;;10.30;99.90;;;;;;4984359;28;20031;-81
2023/10/31 06:49:53;;;;;;;12.18;8.85;;;10.40;99.90;;;;;;4976384;28;20030;-80
2023/10/31 06:52:19;;;;;;;9.52;6.45;;;10.40;99.90;;;;;;4986569;28;20062;-80
2023/10/31 06:54:44;;;;;;;7.32;5.10;;;10.40;99.90;;;;;;5013597;28;20479;-82
2023/10/31 06:57:10;;;;;;;10.32;8.00;;;10.40;99.90;;;;;;4984308;28;20038;-84
2023/10/31 06:59:35;;;;;;;16.27;10.38;;;10.40;99.90;;;;;;4984099;28;20046;-81
2023/10/31 07:02:01;;;;;;;9.30;6.97;;;10.40;99.90;;;;;;4994265;28;20570;-81
2023/10/31 07:04:26;;;;;;;12.30;9.18;;;10.40;99.90;;;;;;4965273;28;20038;-83
2023/10/31 07:06:56;;;;;;;11.23;7.95;;;10.40;99.90;;;;;;4965370;28;20031;-85
2023/10/31 07:09:23;;;;;;;10.65;8.13;;;10.40;99.90;;;;;;4979814;28;20129;-84
2023/10/31 07:11:49;;;;;;;11.10;7.43;;;10.50;99.90;;;;;;4964189;28;20034;-83
2023/10/31 07:14:14;;;;;;;8.68;6.75;;;10.50;99.90;;;;;;4966275;28;20049;-83
2023/10/31 07:16:43;;;;;;;7.70;5.07;;;10.50;99.90;;;;;;4980825;28;20036;-82
2023/10/31 07:19:09;;;;;;;11.98;8.75;;;10.50;99.90;;;;;;5009573;28;20035;-81
2023/10/31 07:21:35;;;;;;;7.95;6.38;;;10.50;99.90;;;;;;4990909;28;20195;-82
2023/10/31 07:24:01;;;;;;;8.27;5.88;;;10.50;99.90;;;;;;4987911;28;20121;-83
2023/10/31 07:26:27;;;;;;;10.57;8.45;;;10.50;99.90;;;;;;4985480;28;20041;-82
2023/10/31 07:28:53;;;;;;;10.55;7.70;;;10.50;99.90;;;;;;4970873;28;20043;-78
2023/10/31 07:31:18;;;;;;;7.00;5.30;;;10.50;99.90;;;;;;4989213;28;20503;-82
2023/10/31 07:33:46;;;;;;;7.03;4.97;;;10.50;99.90;;;;;;4970259;28;20038;-82
2023/10/31 07:36:13;;;;;;;9.30;5.90;;;10.60;99.90;;;;;;5001592;28;20065;-83
2023/10/31 07:38:38;;;;;;;8.32;6.80;;;10.60;99.90;;;;;;5001687;28;20037;-83
2023/10/31 07:41:04;;;;;;;7.28;5.80;;;10.60;99.90;;;;;;4998764;28;20031;-84
2023/10/31 07:43:29;;;;;;;9.20;7.95;;;10.60;99.90;;;;;;4984403;28;20046;-83
2023/10/31 07:45:55;;;;;;;9.43;6.43;;;10.60;99.90;;;;;;4985589;28;20493;-84
2023/10/31 07:48:20;;;;;;;7.75;4.78;;;10.70;99.90;;;;;;4969676;28;20105;-85
2023/10/31 07:50:46;;;;;;;11.15;9.85;;;10.70;99.90;;;;;;4989004;28;20101;-82
2023/10/31 07:53:12;;;;;;;12.35;7.82;;;10.60;99.90;;;;;;5000130;28;20030;-84
2023/10/31 07:55:37;;;;;;;16.02;8.10;;;10.70;99.90;;;;;;4993033;28;20031;-85
2023/10/31 07:58:03;;;;;;;8.93;5.45;;;10.70;99.90;;;;;;5001242;28;20030;-85
2023/10/31 08:00:28;;;;;;;9.20;6.95;;;10.70;99.90;;;;;;4969401;28;20030;-81
2023/10/31 08:02:54;;;;;;;11.48;5.22;;;10.70;99.90;;;;;;4984593;28;20049;-84
2023/10/31 08:05:19;;;;;;;14.15;10.25;;;10.70;99.90;;;;;;4988114;28;20031;-83
2023/10/31 08:07:45;;;;;;;9.45;6.40;;;10.80;99.90;;;;;;4988861;28;20041;-84
2023/10/31 08:10:11;;;;;;;9.57;6.55;;;10.80;99.90;;;;;;5017567;28;20053;-84
2023/10/31 08:12:37;;;;;;;8.45;4.55;;;10.80;99.90;;;;;;5000120;28;20046;-85
2023/10/31 08:15:02;;;;;;;12.82;10.00;;;10.90;99.90;;;;;;4988648;28;20030;-84
2023/10/31 08:17:28;;;;;;;7.60;5.78;;;10.90;99.90;;;;;;5004579;28;20035;-84
2023/10/31 08:19:53;;;;;;;8.98;6.03;;;10.90;99.90;;;;;;4988523;28;20026;-84
2023/10/31 08:22:20;;;;;;;9.82;5.80;;;11.00;99.90;;;;;;5003189;28;20077;-83
2023/10/31 08:24:45;;;;;;;7.60;5.68;;;11.00;99.90;;;;;;4989179;28;20374;-83
2023/10/31 08:27:12;;;;;;;9.38;7.80;;;11.00;99.90;;;;;;4991558;28;20031;-84
2023/10/31 08:29:38;;;;;;;10.48;8.63;;;11.00;99.90;;;;;;4986716;28;20041;-83
2023/10/31 08:32:04;;;;;;;8.35;5.60;;;11.00;99.90;;;;;;5006072;28;20046;-82
2023/10/31 08:34:30;;;;;;;11.18;5.97;;;11.10;99.90;;;;;;5018361;28;20034;-82
2023/10/31 08:36:57;;;;;;;8.70;6.63;;;11.10;99.90;;;;;;4987650;28;20184;-82
2023/10/31 08:39:22;;;;;;;7.22;4.97;;;11.10;99.90;;;;;;5000732;28;20046;-82
2023/10/31 08:41:55;;;;;;;10.57;5.68;;;11.10;99.90;;;;;;4969116;28;21184;-83
2023/10/31 08:44:21;;;;;;;6.75;4.90;;;11.10;99.90;;;;;;4998314;28;20482;-83
2023/10/31 08:46:46;;;;;;;9.25;5.93;;;11.20;99.90;;;;;;4968306;28;20054;-82
2023/10/31 08:49:15;;;;;;;10.50;8.27;;;11.20;99.90;;;;;;4983077;28;20046;-83
2023/10/31 08:51:41;;;;;;;6.40;4.40;;;11.20;99.90;;;;;;4985420;28;20519;-83
2023/10/31 08:54:07;;;;;;;10.13;7.63;;;11.30;99.90;;;;;;4982692;28;20039;-82
2023/10/31 08:56:32;;;;;;;11.43;8.20;;;11.20;99.90;;;;;;4968407;28;20038;-82
2023/10/31 08:58:58;;;;;;;3.83;3.25;;;11.30;99.90;;;;;;4969464;28;20045;-82
2023/10/31 09:01:28;;;;;;;6.32;5.28;;;11.30;99.90;;;;;;4999302;28;20122;-82
2023/10/31 09:03:54;;;;;;;8.15;6.93;;;11.30;99.90;;;;;;4998374;28;20052;-83
2023/10/31 09:06:20;;;;;;;11.38;7.80;;;11.40;99.90;;;;;;5005250;28;20038;-82
2023/10/31 09:08:45;;;;;;;5.53;4.07;;;11.40;99.90;;;;;;4997639;28;20046;-83
2023/10/31 09:11:11;;;;;;;6.32;3.92;;;11.40;99.90;;;;;;4988232;28;20031;-83
2023/10/31 09:13:36;;;;;;;7.75;6.80;;;11.40;99.90;;;;;;4983751;28;20022;-82
2023/10/31 09:16:02;;;;;;;6.43;5.30;;;11.50;99.90;;;;;;4986649;28;20137;-82
2023/10/31 09:18:28;;;;;;;5.82;3.83;;;11.50;99.90;;;;;;5004292;28;20066;-82
2023/10/31 09:20:53;;;;;;;10.77;6.13;;;11.50;99.90;;;;;;5005141;28;20041;-83
2023/10/31 09:23:19;;;;;;;6.60;4.57;;;11.50;99.90;;;;;;5008428;28;20088;-83
2023/10/31 09:25:45;;;;;;;7.82;5.63;;;11.50;99.90;;;;;;4991087;28;20050;-81
2023/10/31 09:28:11;;;;;;;9.15;4.82;;;11.50;99.90;;;;;;4989576;28;20050;-80
2023/10/31 09:30:36;;;;;;;8.27;4.10;;;11.50;99.90;;;;;;4999748;28;20034;-82
2023/10/31 09:33:02;;;;;;;8.10;3.58;;;11.50;99.90;;;;;;4989851;28;20034;-82
2023/10/31 09:35:27;;;;;;;5.07;4.57;;;11.50;99.90;;;;;;4987843;28;20403;-83
2023/10/31 09:37:54;;;;;;;7.10;5.82;;;11.60;99.90;;;;;;4988810;28;20034;-83
2023/10/31 09:40:20;;;;;;;6.72;4.47;;;11.70;99.90;;;;;;4989420;28;20041;-82
2023/10/31 09:42:46;;;;;;;6.45;4.43;;;11.80;99.90;;;;;;4999112;28;20026;-82
2023/10/31 09:45:11;;;;;;;7.57;5.95;;;11.90;99.90;;;;;;4986399;28;20134;-81
2023/10/31 09:47:37;;;;;;;7.28;5.53;;;12.00;99.90;;;;;;4989711;28;20138;-81
2023/10/31 09:50:03;;;;;;;9.52;5.97;;;12.00;99.90;;;;;;4971109;28;20434;-80
2023/10/31 09:52:29;;;;;;;5.07;4.57;;;12.10;99.90;;;;;;4985452;28;20026;-79
2023/10/31 09:54:54;;;;;;;7.03;5.45;;;12.20;99.90;;;;;;4988637;28;20088;-81
2023/10/31 09:57:21;;;;;;;2.85;2.30;;;12.30;99.90;;;;;;4997947;28;20042;-84
2023/10/31 09:59:46;;;;;;;8.65;5.68;;;12.40;99.90;;;;;;4984481;28;20494;-82
2023/10/31 10:02:12;;;;;;;8.85;4.43;;;12.50;99.90;;;;;;4986324;28;20045;-82
2023/10/31 10:04:38;;;;;;;4.78;3.95;;;12.50;99.90;;;;;;4968757;28;20047;-82
2023/10/31 10:07:05;;;;;;;6.97;5.22;;;12.50;99.90;;;;;;5016779;28;20077;-81
2023/10/31 10:09:31;;;;;;;7.85;4.10;;;12.60;99.90;;;;;;5001656;28;20026;-80
2023/10/31 10:11:59;;;;;;;7.25;4.18;;;12.60;99.90;;;;;;4984380;28;20037;-81
2023/10/31 10:14:24;;;;;;;4.25;3.17;;;12.70;99.90;;;;;;4987901;28;20042;-82
2023/10/31 10:16:50;;;;;;;4.07;2.85;;;12.70;99.90;;;;;;5000262;28;20044;-82
2023/10/31 10:19:22;;;;;;;10.15;4.97;;;12.80;99.90;;;;;;4985058;28;20110;-81
2023/10/31 10:21:48;;;;;;;5.45;3.58;;;12.80;99.90;;;;;;4982416;28;20521;-79
2023/10/31 10:24:15;;;;;;;7.55;4.80;;;12.90;99.90;;;;;;4996694;28;20406;-81
2023/10/31 10:26:40;;;;;;;6.85;5.50;;;12.90;99.90;;;;;;4967899;28;20085;-81
2023/10/31 10:29:06;;;;;;;8.07;5.18;;;12.90;99.90;;;;;;4997156;28;20026;-81
2023/10/31 10:31:31;;;;;;;8.02;4.97;;;13.00;99.90;;;;;;4978386;28;20582;-80
2023/10/31 10:33:58;;;;;;;3.58;3.28;;;13.00;99.90;;;;;;4983852;28;20034;-81
2023/10/31 10:36:24;;;;;;;8.20;5.35;;;13.10;99.90;;;;;;5015709;28;20035;-81
2023/10/31 10:38:49;;;;;;;6.03;4.18;;;13.10;99.90;;;;;;4970192;28;20052;-82
2023/10/31 10:41:15;;;;;;;8.60;5.45;;;13.10;99.90;;;;;;4981840;28;20031;-82
2023/10/31 10:43:40;;;;;;;9.15;5.28;;;13.10;99.90;;;;;;4984454;28;20391;-81
2023/10/31 10:46:07;;;;;;;2.92;2.47;;;13.10;99.90;;;;;;4951497;28;20038;-81
2023/10/31 10:48:34;;;;;;;9.82;4.90;;;13.20;99.90;;;;;;4984139;28;20035;-81
2023/10/31 10:51:11;;;;;;;4.68;3.03;;;13.20;99.90;;;;;;4981132;28;20042;-81
2023/10/31 10:53:44;;;;;;;9.15;5.60;;;13.40;99.90;;;;;;4994800;28;20515;-81
2023/10/31 10:56:16;;;;;;;6.63;3.83;;;13.40;99.90;;;;;;4997075;28;20398;-81
2023/10/31 10:58:58;;;;;;;3.55;2.83;;;13.50;99.90;;;;;;5002195;28;20124;-81
2023/10/31 11:01:24;;;;;;;7.53;5.07;;;13.50;99.90;;;;;;4997937;28;20042;-81
2023/10/31 11:03:49;;;;;;;6.35;3.08;;;13.60;99.90;;;;;;4970521;28;20072;-81
2023/10/31 11:06:15;;;;;;;3.65;3.05;;;13.60;99.90;;;;;;4970259;28;20113;-82
2023/10/31 11:08:41;;;;;;;6.53;3.45;;;13.50;99.90;;;;;;5000634;28;20061;-81
2023/10/31 11:11:06;;;;;;;5.45;3.80;;;13.60;99.90;;;;;;4996777;28;20046;-81
2023/10/31 11:13:32;;;;;;;6.35;3.90;;;13.70;99.90;;;;;;4986803;28;20505;-81
2023/10/31 11:16:02;;;;;;;7.40;3.28;;;13.70;99.90;;;;;;5013896;28;20030;-81
2023/10/31 11:18:27;;;;;;;4.72;2.90;;;13.80;99.90;;;;;;4998908;28;20030;-81
2023/10/31 11:20:53;;;;;;;6.85;2.50;;;13.80;99.90;;;;;;4967491;28;20034;-81
2023/10/31 11:23:18;;;;;;;4.68;3.03;;;13.90;99.90;;;;;;4968548;28;20521;-81
2023/10/31 11:25:44;;;;;;;4.88;2.90;;;13.90;99.90;;;;;;4969216;28;20517;-81
2023/10/31 11:28:13;;;;;;;4.22;3.42;;;14.00;99.90;;;;;;5012839;28;20113;-81
2023/10/31 11:30:39;;;;;;;6.07;2.60;;;14.00;99.90;;;;;;4968451;28;20663;-81
2023/10/31 11:33:05;;;;;;;7.22;2.97;;;14.00;99.90;;;;;;4985160;28;20141;-81
2023/10/31 11:35:31;;;;;;;8.25;3.60;;;14.00;99.90;;;;;;4997706;28;20027;-81
2023/10/31 11:38:06;;;;;;;3.65;2.70;;;14.10;99.90;;;;;;4968388;28;20049;-81
2023/10/31 11:40:32;;;;;;;4.40;1.47;;;14.10;99.90;;;;;;4978382;28;20035;-80
2023/10/31 11:42:57;;;;;;;;;;;14.10;99.90;;;;;;4295110;28;9999879;-80
2023/10/31 11:45:31;;;;;;;1.73;1.55;;;14.10;99.90;;;;;;4996479;28;19913;-81
2023/10/31 11:47:57;;;;;;;5.53;1.92;;;14.20;99.90;;;;;;4998966;28;20049;-81
2023/10/31 11:50:22;;;;;;;5.57;2.63;;;14.20;99.90;;;;;;4965278;28;20645;-81
2023/10/31 11:53:13;;;;;;;4.07;2.30;;;14.10;99.90;;;;;;4965145;28;20038;-81
2023/10/31 11:55:43;;;;;;;4.05;2.25;;;14.00;99.90;;;;;;5014127;28;20030;-81
2023/10/31 11:58:26;;;;;;;2.70;2.35;;;14.00;99.90;;;;;;4985928;28;20736;-81
2023/10/31 12:00:53;;;;;;;4.30;1.58;;;13.90;99.90;;;;;;5011959;28;20035;-81
2023/10/31 12:03:21;;;;;;;3.20;2.13;;;13.90;99.90;;;;;;4981455;28;20130;-81
2023/10/31 12:05:57;;;;;;;4.00;1.52;;;14.00;99.90;;;;;;4996676;28;20109;-81
2023/10/31 12:08:29;;;;;;;1.65;1.40;;;14.10;99.90;;;;;;4978937;28;20058;-81
2023/10/31 12:11:10;;;;;;;2.75;1.77;;;14.20;99.90;;;;;;4984090;28;20042;-83
2023/10/31 12:13:40;;;;;;;6.20;2.15;;;14.30;99.90;;;;;;4971205;28;20034;-84
2023/10/31 12:16:06;;;;;;;2.58;1.55;;;14.20;99.90;;;;;;4998755;28;20022;-84
2023/10/31 12:18:34;;;;;;;4.07;1.60;;;14.20;99.90;;;;;;4983355;28;20383;-82
2023/10/31 12:21:00;;;;;;;3.38;1.42;;;14.40;99.90;;;;;;4953092;28;20435;-84
2023/10/31 12:23:25;;;;;;;2.25;1.40;;;14.40;99.90;;;;;;4984541;28;20030;-83
2023/10/31 12:25:51;;;;;;;3.47;1.60;;;14.50;99.90;;;;;;4967856;28;20049;-83
2023/10/31 12:28:23;;;;;;;5.30;1.77;;;14.50;99.90;;;;;;4998221;28;20041;-84
2023/10/31 12:30:55;;;;;;;4.15;1.38;;;14.50;99.90;;;;;;4983475;28;20062;-84
2023/10/31 12:33:24;;;;;;;3.05;1.27;;;14.50;99.90;;;;;;4977778;28;20509;-85
2023/10/31 12:35:51;;;;;;;6.50;1.35;;;14.40;99.90;;;;;;5013245;28;20037;-85
2023/10/31 12:38:17;;;;;;;4.32;1.63;;;14.40;99.90;;;;;;4983426;28;20034;-84
2023/10/31 12:40:45;;;;;;;3.90;1.30;;;14.40;99.90;;;;;;4967443;28;20040;-83